createdAt,value
2022-10-14T00:01:23.825Z,92.44
2022-10-14T00:03:53.141Z,92.67
2022-10-14T00:06:25.706Z,92.97
2022-10-14T00:08:53.946Z,92.87
2022-10-14T00:11:24.859Z,92.48
2022-10-14T00:13:56.205Z,92.84
2022-10-14T00:16:27.400Z,92.76
2022-10-14T00:18:55.540Z,92.96
2022-10-14T00:21:25.280Z,92.96
2022-10-14T00:23:53.432Z,92.60
2022-10-14T00:26:24.412Z,93.25
2022-10-14T00:28:54.101Z,93.35
2022-10-14T00:31:22.471Z,92.76
2022-10-14T00:33:50.835Z,93.08
2022-10-14T00:36:21.381Z,92.86
2022-10-14T00:38:51.963Z,92.99
2022-10-14T00:41:26.102Z,93.14
2022-10-14T00:44:00.434Z,92.80
2022-10-14T00:46:30.757Z,92.45
2022-10-14T00:49:00.054Z,92.96
2022-10-14T00:51:28.874Z,92.69
2022-10-14T00:53:58.447Z,92.77
2022-10-14T00:56:30.570Z,93.13
2022-10-14T00:58:59.678Z,93.33
2022-10-14T01:01:27.896Z,92.75
2022-10-14T01:03:56.250Z,92.72
2022-10-14T01:06:43.489Z,92.68
2022-10-14T01:09:22.310Z,92.84
2022-10-14T01:12:27.574Z,92.81
2022-10-14T01:15:04.689Z,92.80
2022-10-14T01:17:49.256Z,92.89
2022-10-14T01:20:48.015Z,93.31
2022-10-14T01:24:01.206Z,93.33
2022-10-14T01:26:58.005Z,93.05
2022-10-14T01:30:13.755Z,93.29
2022-10-14T01:32:54.114Z,92.46
2022-10-14T01:35:32.375Z,92.65
2022-10-14T01:38:05.219Z,93.28
2022-10-14T01:40:37.992Z,92.97
2022-10-14T01:43:08.053Z,93.05
2022-10-14T01:45:42.431Z,92.59
2022-10-14T01:48:12.638Z,93.08
2022-10-14T01:50:44.338Z,92.73
2022-10-14T01:53:17.897Z,92.95
2022-10-14T01:55:48.529Z,92.72
2022-10-14T01:58:18.997Z,93.15
2022-10-14T02:00:48.856Z,92.85
2022-10-14T02:03:16.967Z,93.04
2022-10-14T02:05:53.378Z,92.42
2022-10-14T02:08:30.199Z,92.44
2022-10-14T02:11:12.551Z,93.13
2022-10-14T02:14:11.195Z,92.70
2022-10-14T02:16:50.059Z,92.85
2022-10-14T02:19:29.293Z,93.00
2022-10-14T02:22:04.847Z,92.84
2022-10-14T02:24:37.203Z,92.40
2022-10-14T02:27:10.651Z,92.80
2022-10-14T02:29:41.948Z,92.84
2022-10-14T02:32:12.448Z,92.25
2022-10-14T02:34:42.359Z,92.89
2022-10-14T02:37:11.552Z,92.60
2022-10-14T02:39:45.429Z,92.28
2022-10-14T02:42:13.618Z,92.13
2022-10-14T02:44:54.501Z,92.31
2022-10-14T02:47:24.894Z,92.74
2022-10-14T02:49:53.724Z,92.14
2022-10-14T02:52:22.419Z,92.74
2022-10-14T02:54:50.743Z,92.35
2022-10-14T02:57:18.818Z,92.02
2022-10-14T02:59:46.964Z,92.71
2022-10-14T03:02:15.177Z,92.43
2022-10-14T03:04:44.728Z,92.00
2022-10-14T03:07:12.894Z,92.64
2022-10-14T03:09:40.972Z,92.42
2022-10-14T03:12:09.250Z,92.39
2022-10-14T03:14:37.378Z,92.05
2022-10-14T03:17:06.108Z,92.17
2022-10-14T03:19:34.178Z,92.36
2022-10-14T03:22:03.646Z,92.51
2022-10-14T03:24:31.766Z,92.27
2022-10-14T03:26:59.895Z,92.10
2022-10-14T03:29:27.974Z,92.30
2022-10-14T03:31:56.175Z,92.13
2022-10-14T03:34:24.393Z,92.27
2022-10-14T03:36:52.476Z,92.65
2022-10-14T03:39:21.932Z,92.67
2022-10-14T03:41:50.011Z,92.52
2022-10-14T03:44:18.087Z,92.62
2022-10-14T03:46:46.258Z,92.48
2022-10-14T03:49:14.470Z,92.08
2022-10-14T03:51:42.534Z,92.19
2022-10-14T03:54:10.649Z,92.16
2022-10-14T03:56:40.099Z,92.50
2022-10-14T03:59:08.260Z,92.62
2022-10-14T04:01:36.385Z,92.60
2022-10-14T04:04:04.590Z,92.62
2022-10-14T04:06:32.691Z,92.16
2022-10-14T04:09:00.736Z,92.53
2022-10-14T04:11:28.824Z,92.20
2022-10-14T04:14:01.177Z,92.26
2022-10-14T04:16:29.250Z,92.21
2022-10-14T04:18:58.680Z,92.43
2022-10-14T04:21:26.763Z,92.62
2022-10-14T04:23:54.880Z,92.15
2022-10-14T04:26:22.943Z,92.79
2022-10-14T04:28:51.153Z,92.18
2022-10-14T04:31:22.541Z,92.32
2022-10-14T04:33:50.636Z,92.64
2022-10-14T04:36:18.777Z,92.64
2022-10-14T04:38:46.966Z,92.20
2022-10-14T04:41:15.054Z,92.95
2022-10-14T04:43:43.177Z,92.74
2022-10-14T04:46:11.206Z,92.75
2022-10-14T04:48:40.642Z,92.45
2022-10-14T04:51:08.755Z,92.53
2022-10-14T04:53:36.795Z,92.48
2022-10-14T04:56:05.249Z,92.53
2022-10-14T04:58:33.324Z,92.42
2022-10-14T05:01:01.490Z,93.05
2022-10-14T05:03:29.631Z,93.01
2022-10-14T05:06:00.636Z,92.77
2022-10-14T05:08:28.865Z,92.83
2022-10-14T05:10:56.953Z,92.83
2022-10-14T05:13:25.062Z,92.91
2022-10-14T05:15:53.190Z,92.69
2022-10-14T05:18:21.252Z,92.67
2022-10-14T05:20:49.530Z,92.84
2022-10-14T05:23:19.502Z,93.16
2022-10-14T05:25:48.140Z,92.98
2022-10-14T05:28:16.342Z,92.53
2022-10-14T05:30:44.825Z,92.67
2022-10-14T05:33:13.440Z,92.89
2022-10-14T05:35:58.169Z,93.02
2022-10-14T05:38:28.800Z,92.58
2022-10-14T05:40:58.627Z,92.50
2022-10-14T05:43:31.815Z,92.93
2022-10-14T05:46:00.617Z,92.84
2022-10-14T05:48:28.865Z,92.96
2022-10-14T05:51:01.350Z,92.97
2022-10-14T05:53:32.445Z,92.39
2022-10-14T05:56:08.817Z,92.57
2022-10-14T05:58:36.960Z,92.84
2022-10-14T06:01:08.003Z,93.11
2022-10-14T06:03:36.548Z,93.22
2022-10-14T06:06:08.424Z,92.47
2022-10-14T06:08:37.957Z,92.91
2022-10-14T06:11:07.426Z,92.79
2022-10-14T06:13:36.272Z,92.74
2022-10-14T06:16:05.649Z,92.64
2022-10-14T06:18:33.851Z,92.65
2022-10-14T06:21:02.401Z,93.08
2022-10-14T06:23:30.612Z,92.97
2022-10-14T06:26:00.177Z,92.61
2022-10-14T06:28:28.395Z,92.47
2022-10-14T06:30:56.811Z,92.81
2022-10-14T06:33:24.976Z,92.69
2022-10-14T06:35:53.077Z,92.50
2022-10-14T06:38:21.128Z,92.45
2022-10-14T06:40:52.449Z,92.81
2022-10-14T06:43:22.786Z,92.44
2022-10-14T06:45:52.667Z,92.66
2022-10-14T06:48:20.725Z,92.48
2022-10-14T06:50:48.808Z,92.57
2022-10-14T06:53:16.854Z,92.62
2022-10-14T06:55:45.134Z,92.24
2022-10-14T06:58:13.168Z,92.61
2022-10-14T07:00:47.200Z,91.88
2022-10-14T07:03:16.377Z,91.91
2022-10-14T07:05:44.511Z,92.02
2022-10-14T07:08:15.293Z,91.72
2022-10-14T07:10:44.028Z,91.81
2022-10-14T07:13:12.120Z,91.80
2022-10-14T07:15:42.022Z,91.98
2022-10-14T07:18:10.515Z,91.66
2022-10-14T07:20:38.607Z,91.96
2022-10-14T07:23:06.695Z,92.18
2022-10-14T07:25:34.812Z,92.54
2022-10-14T07:28:02.940Z,92.32
2022-10-14T07:30:31.098Z,91.95
2022-10-14T07:33:02.594Z,92.32
2022-10-14T07:35:30.992Z,91.86
2022-10-14T07:38:00.654Z,91.36
2022-10-14T07:40:29.031Z,91.31
2022-10-14T07:42:57.334Z,91.45
2022-10-14T07:45:25.513Z,91.18
2022-10-14T07:47:53.635Z,91.00
2022-10-14T07:50:23.184Z,91.45
2022-10-14T07:52:51.287Z,91.16
2022-10-14T07:55:19.457Z,90.78
2022-10-14T07:57:47.614Z,91.04
2022-10-14T08:00:15.999Z,90.94
2022-10-14T08:02:44.967Z,91.32
2022-10-14T08:05:36.459Z,91.28
2022-10-14T08:08:02.437Z,90.83
2022-10-14T08:10:32.166Z,90.59
2022-10-14T08:13:00.267Z,90.60
2022-10-14T08:15:29.945Z,90.44
2022-10-14T08:17:58.050Z,90.42
2022-10-14T08:20:26.249Z,89.96
2022-10-14T08:22:54.328Z,90.29
2022-10-14T08:25:23.835Z,89.86
2022-10-14T08:27:54.115Z,89.73
2022-10-14T08:30:22.664Z,89.38
2022-10-14T08:32:51.112Z,88.66
2022-10-14T08:35:19.340Z,88.63
2022-10-14T08:37:58.087Z,88.65
2022-10-14T08:40:29.919Z,88.28
2022-10-14T08:43:04.442Z,88.27
2022-10-14T08:45:38.672Z,88.02
2022-10-14T08:48:14.067Z,88.04
2022-10-14T08:50:47.960Z,87.83
2022-10-14T08:53:19.577Z,87.38
2022-10-14T08:55:52.689Z,87.10
2022-10-14T09:01:08.708Z,86.72
2022-10-14T09:03:39.538Z,86.58
2022-10-14T09:06:15.003Z,86.28
2022-10-14T09:08:46.219Z,86.18
2022-10-14T09:11:19.683Z,86.09
2022-10-14T09:13:52.017Z,85.85
2022-10-14T09:16:23.605Z,85.32
2022-10-14T09:18:55.875Z,85.02
2022-10-14T09:21:51.546Z,84.82
2022-10-14T09:24:23.715Z,84.61
2022-10-14T09:26:58.551Z,84.48
2022-10-14T09:29:29.421Z,84.41
2022-10-14T09:32:01.067Z,84.30
2022-10-14T09:34:35.029Z,84.10
2022-10-14T09:37:24.645Z,83.58
2022-10-14T09:39:55.864Z,83.13
2022-10-14T09:42:29.560Z,82.74
2022-10-14T09:45:10.558Z,82.63
2022-10-14T09:47:47.017Z,82.33
2022-10-14T09:50:24.974Z,82.19
2022-10-14T09:52:59.236Z,82.01
2022-10-14T09:55:27.376Z,81.97
2022-10-14T09:58:14.067Z,81.69
2022-10-14T10:00:43.127Z,81.71
2022-10-14T10:03:28.016Z,81.76
2022-10-14T10:06:06.723Z,81.71
2022-10-14T10:08:39.023Z,81.62
2022-10-14T10:11:10.570Z,81.39
2022-10-14T10:13:44.629Z,81.47
2022-10-14T10:16:26.113Z,81.57
2022-10-14T10:18:57.209Z,81.54
2022-10-14T10:21:27.535Z,81.94
2022-10-14T10:23:59.158Z,82.04
2022-10-14T10:26:30.628Z,82.05
2022-10-14T10:29:02.663Z,82.16
2022-10-14T10:32:02.638Z,82.40
2022-10-14T10:35:12.329Z,82.38
2022-10-14T10:37:50.477Z,82.80
2022-10-14T10:40:33.151Z,82.64
2022-10-14T10:43:20.229Z,82.88
2022-10-14T10:46:05.328Z,82.88
2022-10-14T10:48:43.829Z,82.96
2022-10-14T10:51:19.811Z,83.38
2022-10-14T10:54:02.729Z,83.31
2022-10-14T10:56:42.949Z,83.56
2022-10-14T10:59:56.256Z,84.00
2022-10-14T11:03:03.284Z,84.85
2022-10-14T11:05:50.162Z,84.40
2022-10-14T11:09:07.580Z,84.09
2022-10-14T11:12:05.743Z,84.44
2022-10-14T11:17:59.929Z,84.56
2022-10-14T11:20:38.644Z,84.58
2022-10-14T11:23:36.289Z,84.73
2022-10-14T11:26:14.741Z,84.78
2022-10-14T11:28:51.313Z,84.95
2022-10-14T11:31:33.547Z,85.16
2022-10-14T11:34:24.093Z,85.68
2022-10-14T11:37:06.262Z,85.68
2022-10-14T11:39:41.538Z,85.67
2022-10-14T11:42:24.748Z,85.94
2022-10-14T11:45:08.523Z,85.95
2022-10-14T11:47:40.774Z,86.50
2022-10-14T11:50:19.170Z,86.22
2022-10-14T11:52:55.227Z,86.05
2022-10-14T11:55:26.153Z,86.19
2022-10-14T11:58:00.276Z,86.58
2022-10-14T12:00:33.141Z,86.47
2022-10-14T12:03:10.931Z,86.29
2022-10-14T12:05:46.984Z,86.48
2022-10-14T12:08:27.035Z,87.02
2022-10-14T12:11:03.650Z,86.59
2022-10-14T12:13:38.567Z,87.08
2022-10-14T12:16:13.900Z,87.08
2022-10-14T12:18:44.181Z,87.00
2022-10-14T12:21:22.573Z,86.94
2022-10-14T12:23:56.589Z,87.22
2022-10-14T12:26:48.441Z,87.00
2022-10-14T12:29:21.480Z,87.38
2022-10-14T12:31:54.646Z,87.72
2022-10-14T12:34:34.815Z,87.54
2022-10-14T12:37:54.285Z,87.45
2022-10-14T12:40:30.156Z,87.34
2022-10-14T12:43:20.505Z,87.54
2022-10-14T12:45:54.536Z,87.78
2022-10-14T12:48:25.252Z,87.78
2022-10-14T12:50:59.313Z,87.91
2022-10-14T12:53:32.010Z,88.13
2022-10-14T12:56:02.510Z,88.42
2022-10-14T12:58:34.669Z,88.29
2022-10-14T13:01:08.355Z,88.55
2022-10-14T13:03:45.360Z,88.60
2022-10-14T13:06:39.871Z,88.76
2022-10-14T13:09:37.081Z,88.67
2022-10-14T13:12:46.816Z,88.80
2022-10-14T13:15:51.030Z,88.86
2022-10-14T13:18:53.197Z,89.26
2022-10-14T13:21:32.185Z,89.07
2022-10-14T13:24:02.789Z,89.42
2022-10-14T13:26:43.213Z,88.90
2022-10-14T13:29:24.276Z,89.29
2022-10-14T13:32:01.693Z,89.10
2022-10-14T13:34:48.315Z,89.11
2022-10-14T13:37:34.792Z,89.07
2022-10-14T13:40:21.172Z,89.29
2022-10-14T13:42:55.924Z,89.27
2022-10-14T13:45:31.929Z,89.46
2022-10-14T13:48:01.261Z,89.54
2022-10-14T13:50:37.892Z,89.57
2022-10-14T13:53:10.537Z,89.64
2022-10-14T13:55:50.247Z,89.59
2022-10-14T13:58:25.129Z,89.74
2022-10-14T14:01:04.279Z,89.82
2022-10-14T14:03:37.245Z,89.87
2022-10-14T14:06:13.225Z,89.71
2022-10-14T14:08:49.085Z,89.83
2022-10-14T14:11:24.392Z,89.90
2022-10-14T14:14:07.954Z,89.86
2022-10-14T14:16:41.301Z,89.84
2022-10-14T14:19:20.613Z,89.97
2022-10-14T14:21:48.813Z,89.90
2022-10-14T14:24:25.094Z,89.97
2022-10-14T14:26:57.465Z,89.80
2022-10-14T14:29:30.520Z,89.96
2022-10-14T14:32:06.775Z,89.68
2022-10-14T14:34:38.052Z,89.82
2022-10-14T14:40:00.529Z,90.04
2022-10-14T14:42:32.409Z,90.15
2022-10-14T14:45:16.874Z,90.07
2022-10-14T14:47:45.909Z,90.12
2022-10-14T14:50:32.095Z,90.08
2022-10-14T14:53:04.978Z,90.08
2022-10-14T14:55:46.226Z,89.82
2022-10-14T14:58:26.467Z,90.19
2022-10-14T15:00:56.910Z,90.02
2022-10-14T15:03:27.900Z,90.14
2022-10-14T15:06:00.982Z,89.99
2022-10-14T15:08:33.176Z,89.86
2022-10-14T15:11:02.612Z,90.11
2022-10-14T15:13:49.994Z,89.99
2022-10-14T15:16:41.574Z,89.96
2022-10-14T15:19:35.701Z,90.25
2022-10-14T15:22:34.924Z,89.98
2022-10-14T15:25:12.017Z,90.03
2022-10-14T15:27:52.450Z,90.25
2022-10-14T15:30:37.930Z,90.22
2022-10-14T15:33:16.633Z,90.04
2022-10-14T15:35:46.797Z,90.10
2022-10-14T15:38:18.206Z,90.21
2022-10-14T15:40:50.039Z,90.30
2022-10-14T15:43:21.509Z,90.60
2022-10-14T15:46:12.642Z,90.76
2022-10-14T15:48:49.558Z,90.77
2022-10-14T15:51:19.636Z,91.21
2022-10-14T15:53:49.196Z,91.02
2022-10-14T15:56:17.729Z,91.14
2022-10-14T15:58:45.778Z,90.64
2022-10-14T16:01:20.393Z,91.02
2022-10-14T16:03:53.111Z,91.40
2022-10-14T16:06:22.654Z,90.97
2022-10-14T16:08:51.347Z,90.91
2022-10-14T16:11:24.136Z,91.00
2022-10-14T16:13:52.240Z,90.99
2022-10-14T16:16:26.299Z,90.73
2022-10-14T16:18:55.991Z,91.10
2022-10-14T16:21:24.109Z,91.19
2022-10-14T16:23:53.750Z,91.19
2022-10-14T16:26:21.886Z,91.34
2022-10-14T16:28:50.121Z,91.30
2022-10-14T16:31:18.765Z,91.27
2022-10-14T16:33:47.128Z,91.53
2022-10-14T16:36:17.469Z,91.60
2022-10-14T16:38:45.849Z,91.47
2022-10-14T16:41:14.115Z,91.66
2022-10-14T16:43:42.593Z,91.61
2022-10-14T16:46:15.482Z,91.57
2022-10-14T16:48:44.529Z,91.41
2022-10-14T16:51:15.362Z,91.52
2022-10-14T16:53:46.713Z,91.48
2022-10-14T16:56:35.116Z,91.87
2022-10-14T16:59:04.061Z,91.70
2022-10-14T17:01:32.802Z,91.69
2022-10-14T17:04:01.118Z,91.64
2022-10-14T17:06:29.214Z,91.80
2022-10-14T17:08:58.713Z,92.12
2022-10-14T17:11:28.087Z,91.69
2022-10-14T17:13:57.959Z,91.77
2022-10-14T17:16:27.062Z,92.10
2022-10-14T17:18:55.647Z,92.16
2022-10-14T17:21:24.284Z,92.08
2022-10-14T17:23:52.363Z,91.97
2022-10-14T17:26:22.060Z,92.17
2022-10-14T17:28:50.666Z,92.49
2022-10-14T17:31:22.867Z,92.57
2022-10-14T17:33:52.596Z,92.62
2022-10-14T17:36:23.233Z,92.74
2022-10-14T17:38:53.120Z,93.05
2022-10-14T17:41:23.497Z,93.22
2022-10-14T17:43:52.050Z,93.54
2022-10-14T17:46:23.465Z,93.53
2022-10-14T17:48:54.284Z,93.51
2022-10-14T17:51:25.064Z,93.52
2022-10-14T17:53:58.366Z,93.72
2022-10-14T17:56:30.359Z,93.84
2022-10-14T17:59:00.741Z,93.96
2022-10-14T18:01:37.400Z,94.22
2022-10-14T18:04:07.997Z,94.19
2022-10-14T18:06:37.263Z,94.13
2022-10-14T18:09:09.045Z,94.74
2022-10-14T18:12:07.820Z,94.79
2022-10-14T18:14:31.300Z,94.62
2022-10-14T18:16:59.847Z,95.05
2022-10-14T18:19:28.434Z,94.93
2022-10-14T18:21:56.515Z,94.91
2022-10-14T18:24:24.770Z,95.25
2022-10-14T18:26:54.651Z,95.17
2022-10-14T18:29:24.315Z,95.06
2022-10-14T18:34:27.265Z,95.20
2022-10-14T18:36:57.607Z,95.07
2022-10-14T18:39:26.994Z,95.08
2022-10-14T18:41:56.879Z,95.35
2022-10-14T18:44:24.897Z,95.26
2022-10-14T18:46:53.380Z,95.40
2022-10-14T18:49:21.660Z,95.06
2022-10-14T18:51:50.560Z,95.36
2022-10-14T18:54:22.232Z,95.62
2022-10-14T18:56:50.510Z,95.58
2022-10-14T18:59:23.074Z,95.55
2022-10-14T19:01:53.480Z,95.76
2022-10-14T19:04:26.830Z,95.57
2022-10-14T19:06:55.421Z,95.39
2022-10-14T19:09:29.654Z,95.90
2022-10-14T19:11:59.279Z,95.46
2022-10-14T19:14:31.738Z,95.59
2022-10-14T19:16:59.864Z,95.76
2022-10-14T19:19:28.049Z,95.45
2022-10-14T19:21:59.489Z,95.89
2022-10-14T19:24:27.998Z,95.58
2022-10-14T19:26:58.252Z,95.86
2022-10-14T19:29:27.723Z,95.61
2022-10-14T19:31:55.862Z,95.66
2022-10-14T19:34:27.064Z,95.73
2022-10-14T19:36:55.544Z,95.94
2022-10-14T19:39:23.676Z,95.83
2022-10-14T19:41:51.757Z,95.81
2022-10-14T19:44:20.220Z,95.82
2022-10-14T19:46:49.698Z,95.40
2022-10-14T19:49:18.059Z,95.25
2022-10-14T19:51:46.172Z,95.51
2022-10-14T19:54:15.184Z,95.11
2022-10-14T19:56:43.917Z,95.58
2022-10-14T19:59:13.484Z,95.68
2022-10-14T20:01:42.635Z,95.38
2022-10-14T20:04:12.566Z,95.37
2022-10-14T20:06:41.944Z,95.22
2022-10-14T20:09:13.546Z,95.15
2022-10-14T20:11:42.236Z,95.44
2022-10-14T20:14:10.346Z,95.61
2022-10-14T20:16:38.521Z,95.36
2022-10-14T20:19:06.972Z,95.36
2022-10-14T20:21:36.422Z,95.00
2022-10-14T20:24:05.083Z,95.33
2022-10-14T20:26:33.250Z,94.91
2022-10-14T20:29:01.398Z,95.33
2022-10-14T20:31:29.491Z,95.03
2022-10-14T20:33:58.378Z,94.78
2022-10-14T20:36:26.526Z,95.12
2022-10-14T20:38:56.349Z,95.21
2022-10-14T20:41:26.781Z,94.80
2022-10-14T20:43:56.418Z,94.88
2022-10-14T20:46:25.450Z,95.22
2022-10-14T20:48:57.340Z,94.83
2022-10-14T20:51:25.592Z,95.30
2022-10-14T20:54:01.811Z,94.92
2022-10-14T20:56:33.570Z,95.33
2022-10-14T20:59:04.859Z,95.38
2022-10-14T21:01:33.892Z,95.32
2022-10-14T21:04:03.314Z,94.95
2022-10-14T21:06:32.297Z,94.72
2022-10-14T21:09:02.368Z,95.08
2022-10-14T21:11:30.537Z,95.25
2022-10-14T21:14:01.613Z,95.23
2022-10-14T21:16:31.677Z,94.76
2022-10-14T21:19:02.894Z,95.05
2022-10-14T21:21:35.729Z,94.80
2022-10-14T21:24:06.318Z,95.00
2022-10-14T21:26:34.707Z,94.68
2022-10-14T21:29:04.470Z,94.63
2022-10-14T21:31:33.576Z,94.93
2022-10-14T21:34:06.057Z,95.15
2022-10-14T21:36:35.697Z,95.01
2022-10-14T21:39:11.584Z,94.54
2022-10-14T21:41:46.867Z,94.52
2022-10-14T21:44:19.718Z,94.62
2022-10-14T21:46:48.833Z,94.79
2022-10-14T21:49:22.783Z,95.07
2022-10-14T21:51:58.595Z,94.93
2022-10-14T21:54:28.620Z,95.14
2022-10-14T21:59:30.601Z,94.62
2022-10-14T22:01:59.256Z,94.47
2022-10-14T22:04:28.207Z,94.54
2022-10-14T22:06:56.463Z,94.70
2022-10-14T22:09:24.935Z,94.67
2022-10-14T22:11:58.145Z,94.69
2022-10-14T22:14:29.312Z,95.25
2022-10-14T22:16:57.663Z,94.53
2022-10-14T22:19:26.604Z,94.50
2022-10-14T22:21:55.104Z,94.94
2022-10-14T22:24:23.525Z,94.98
2022-10-14T22:26:52.710Z,94.97
2022-10-14T22:29:22.639Z,94.49
2022-10-14T22:31:50.969Z,94.51
2022-10-14T22:34:19.742Z,94.77
2022-10-14T22:36:48.209Z,94.92
2022-10-14T22:39:18.686Z,95.03
2022-10-14T22:41:49.841Z,94.57
2022-10-14T22:44:23.195Z,94.96
2022-10-14T22:49:33.928Z,95.03
2022-10-14T22:52:18.817Z,94.85
2022-10-14T22:55:02.035Z,94.50
2022-10-14T22:57:49.809Z,94.55
2022-10-14T23:00:27.148Z,94.70
2022-10-14T23:03:01.309Z,95.10
2022-10-14T23:05:33.364Z,94.35
2022-10-14T23:08:19.016Z,94.78
2022-10-14T23:10:50.477Z,94.71
2022-10-14T23:13:23.961Z,94.57
2022-10-14T23:16:14.068Z,94.40
2022-10-14T23:18:50.111Z,94.68
2022-10-14T23:21:30.040Z,94.74
2022-10-14T23:24:01.003Z,94.91
2022-10-14T23:26:39.878Z,94.97
2022-10-14T23:29:12.897Z,94.93
2022-10-14T23:31:47.018Z,94.04
2022-10-14T23:34:18.883Z,94.81
2022-10-14T23:36:52.175Z,94.57
2022-10-14T23:39:30.524Z,94.76
2022-10-14T23:42:02.534Z,94.87
2022-10-14T23:44:35.433Z,94.99
2022-10-14T23:47:06.168Z,95.35
2022-10-14T23:49:43.562Z,95.28
2022-10-14T23:52:12.104Z,95.14
2022-10-14T23:54:42.911Z,95.21
2022-10-14T23:57:12.644Z,95.10
2022-10-14T23:59:40.988Z,94.85
